Rp Zug — HE7351 — position and weather

sailwx.info

Track history (hours):
 
Tides and Currents Weather Stations Pressure Air Temp Water Temp Dewpoint Dewpoint Depression Visibility Wind Speed Wind Dir Waves Ship Positions

Rp Zug

Last reported at 2015-May-04 04:20 UTC. Time now 2015-May-04 08:00 UTC.
Position N 50°03' E 008°31'.

Length 110 m; draft 1 m.

Type: Tanker. MMSI: 269057351.

Date/timePositionNaut miles runAvg speedWind from/ knotsBaromVisibWave heightAir tempDewpointWater temp
2015-May-04 04:20N 50°03' E 008°31'73 1.6
2015-May-02 06:20N 50°49' E 007°02'3 0.2
2015-May-01 12:27N 50°51' E 006°59'0 0.0
2015-Apr-30 21:31N 50°51' E 006°59'0 0.1
2015-Apr-30 20:33N 50°51' E 006°59'0 0.1
2015-Apr-30 19:27N 50°51' E 006°59'0 0.3
2015-Apr-30 18:06N 50°51' E 006°60'0 0.0
2015-Apr-30 17:30N 50°51' E 006°60'0 0.0
2015-Apr-30 16:19N 50°51' E 006°60'0 0.0
2015-Apr-30 15:30N 50°51' E 006°60'0 0.0
2015-Apr-30 14:27N 50°51' E 006°60'1 0.6
2015-Apr-30 13:28N 50°51' E 006°59'80 8.9
2015-Apr-30 04:33N 49°52' E 008°23'25 4.7
2015-Apr-29 23:09N 49°27' E 008°30'610.7
2015-Apr-29 22:34N 49°20' E 008°28'10 9.9
2015-Apr-29 21:33N 49°11' E 008°23'1212.5
2015-Apr-29 20:33N 48°59' E 008°17'11 9.5
2015-Apr-29 19:21N 48°50' E 008°07'5 5.8
2015-Apr-29 18:26N 48°46' E 008°01'7 6.8
2015-Apr-29 17:28N 48°41' E 007°55'0 0.0
2015-Apr-28 19:16N 48°41' E 007°55'1 0.7
2015-Apr-28 18:32N 48°42' E 007°56'9 5.9
2015-Apr-28 17:05N 48°48' E 008°05'3 4.0
2015-Apr-28 16:21N 48°50' E 008°07'5 4.4
2015-Apr-28 15:11N 48°55' E 008°10'3 4.3
2015-Apr-28 14:33N 48°57' E 008°12'4 4.1
2015-Apr-28 13:33N 48°60' E 008°17'4 4.4
2015-Apr-28 12:33N 49°04' E 008°19'4 4.4
2015-Apr-28 11:33N 49°08' E 008°22'4 4.3
2015-Apr-28 10:33N 49°12' E 008°23'4 4.3
2015-Apr-28 09:33N 49°16' E 008°26'3 3.2
2015-Apr-28 08:32N 49°19' E 008°27'106 4.2
2015-Apr-27 07:20N 50°49' E 007°01'2 0.2
2015-Apr-26 20:30N 50°51' E 006°59'3 0.3
2015-Apr-26 08:28N 50°48' E 007°02'102 5.1
2015-Apr-25 12:16N 49°23' E 008°30'6 8.9
2015-Apr-25 11:33N 49°17' E 008°28'1111.2
2015-Apr-25 10:33N 49°06' E 008°22'1211.6
2015-Apr-25 09:33N 48°57' E 008°11'8 7.4
2015-Apr-25 08:33N 48°50' E 008°07'7 7.2
2015-Apr-25 07:33N 48°45' E 007°58'6 5.6
2015-Apr-25 06:33N 48°41' E 007°54'3 0.2
2015-Apr-24 15:33N 48°42' E 007°57'7 6.2
2015-Apr-24 14:23N 48°48' E 008°04'4 4.3
2015-Apr-24 13:28N 48°51' E 008°07'3 3.7
2015-Apr-24 12:34N 48°54' E 008°09'4 3.9
2015-Apr-24 11:34N 48°58' E 008°12'4 3.8
2015-Apr-24 10:34N 48°60' E 008°17'4 4.1
2015-Apr-24 09:33N 49°03' E 008°19'4 4.2
2015-Apr-24 08:33N 49°07' E 008°22'4 4.1
2015-Apr-24 07:33N 49°11' E 008°23'4 4.2
2015-Apr-24 06:33N 49°15' E 008°25'4 4.1
2015-Apr-24 05:33N 49°18' E 008°29'4 3.9
2015-Apr-24 04:32N 49°22' E 008°30'  
Track history (hours):
 
Tides and Currents Weather Stations Pressure Air Temp Water Temp Dewpoint Dewpoint Depression Visibility Wind Speed Wind Dir Waves Ship Positions

Rp Zug

Last reported at 2015-May-04 04:20 UTC. Time now 2015-May-04 08:00 UTC.
Position N 50°03' E 008°31'.

Length 110 m; draft 1 m.

Type: Tanker. MMSI: 269057351.

Date/timePositionNaut miles runAvg speedWind from/ knotsBaromVisibWave heightAir tempDewpointWater temp
2015-May-04 04:20N 50°03' E 008°31'73 1.6
2015-May-02 06:20N 50°49' E 007°02'3 0.2
2015-May-01 12:27N 50°51' E 006°59'0 0.0
2015-Apr-30 21:31N 50°51' E 006°59'0 0.1
2015-Apr-30 20:33N 50°51' E 006°59'0 0.1
2015-Apr-30 19:27N 50°51' E 006°59'0 0.3
2015-Apr-30 18:06N 50°51' E 006°60'0 0.0
2015-Apr-30 17:30N 50°51' E 006°60'0 0.0
2015-Apr-30 16:19N 50°51' E 006°60'0 0.0
2015-Apr-30 15:30N 50°51' E 006°60'0 0.0
2015-Apr-30 14:27N 50°51' E 006°60'1 0.6
2015-Apr-30 13:28N 50°51' E 006°59'80 8.9
2015-Apr-30 04:33N 49°52' E 008°23'25 4.7
2015-Apr-29 23:09N 49°27' E 008°30'610.7
2015-Apr-29 22:34N 49°20' E 008°28'10 9.9
2015-Apr-29 21:33N 49°11' E 008°23'1212.5
2015-Apr-29 20:33N 48°59' E 008°17'11 9.5
2015-Apr-29 19:21N 48°50' E 008°07'5 5.8
2015-Apr-29 18:26N 48°46' E 008°01'7 6.8
2015-Apr-29 17:28N 48°41' E 007°55'0 0.0
2015-Apr-28 19:16N 48°41' E 007°55'1 0.7
2015-Apr-28 18:32N 48°42' E 007°56'9 5.9
2015-Apr-28 17:05N 48°48' E 008°05'3 4.0
2015-Apr-28 16:21N 48°50' E 008°07'5 4.4
2015-Apr-28 15:11N 48°55' E 008°10'3 4.3
2015-Apr-28 14:33N 48°57' E 008°12'4 4.1
2015-Apr-28 13:33N 48°60' E 008°17'4 4.4
2015-Apr-28 12:33N 49°04' E 008°19'4 4.4
2015-Apr-28 11:33N 49°08' E 008°22'4 4.3
2015-Apr-28 10:33N 49°12' E 008°23'4 4.3
2015-Apr-28 09:33N 49°16' E 008°26'3 3.2
2015-Apr-28 08:32N 49°19' E 008°27'106 4.2
2015-Apr-27 07:20N 50°49' E 007°01'2 0.2
2015-Apr-26 20:30N 50°51' E 006°59'3 0.3
2015-Apr-26 08:28N 50°48' E 007°02'102 5.1
2015-Apr-25 12:16N 49°23' E 008°30'6 8.9
2015-Apr-25 11:33N 49°17' E 008°28'1111.2
2015-Apr-25 10:33N 49°06' E 008°22'1211.6
2015-Apr-25 09:33N 48°57' E 008°11'8 7.4
2015-Apr-25 08:33N 48°50' E 008°07'7 7.2
2015-Apr-25 07:33N 48°45' E 007°58'6 5.6
2015-Apr-25 06:33N 48°41' E 007°54'3 0.2
2015-Apr-24 15:33N 48°42' E 007°57'7 6.2
2015-Apr-24 14:23N 48°48' E 008°04'4 4.3
2015-Apr-24 13:28N 48°51' E 008°07'3 3.7
2015-Apr-24 12:34N 48°54' E 008°09'4 3.9
2015-Apr-24 11:34N 48°58' E 008°12'4 3.8
2015-Apr-24 10:34N 48°60' E 008°17'4 4.1
2015-Apr-24 09:33N 49°03' E 008°19'4 4.2
2015-Apr-24 08:33N 49°07' E 008°22'4 4.1
2015-Apr-24 07:33N 49°11' E 008°23'4 4.2
2015-Apr-24 06:33N 49°15' E 008°25'4 4.1
2015-Apr-24 05:33N 49°18' E 008°29'4 3.9
2015-Apr-24 04:32N 49°22' E 008°30'  

Dump ship's entire track history